createdAt,value
2023-05-22T00:01:02.295Z,13.46
2023-05-22T00:03:30.597Z,13.44
2023-05-22T00:06:00.491Z,13.41
2023-05-22T00:08:29.833Z,13.32
2023-05-22T00:10:58.337Z,13.30
2023-05-22T00:13:26.292Z,13.19
2023-05-22T00:15:56.507Z,13.14
2023-05-22T00:18:25.565Z,13.24
2023-05-22T00:20:53.672Z,13.10
2023-05-22T00:23:22.053Z,12.95
2023-05-22T00:25:50.821Z,13.00
2023-05-22T00:28:18.937Z,12.92
2023-05-22T00:30:46.973Z,12.74
2023-05-22T00:33:16.700Z,12.44
2023-05-22T00:35:44.662Z,12.75
2023-05-22T00:38:29.505Z,12.69
2023-05-22T00:40:57.660Z,12.60
2023-05-22T00:43:25.807Z,12.46
2023-05-22T00:45:54.224Z,12.42
2023-05-22T00:48:23.731Z,12.49
2023-05-22T00:50:52.391Z,12.41
2023-05-22T00:53:21.936Z,11.96
2023-05-22T00:55:50.226Z,12.25
2023-05-22T00:58:19.507Z,12.36
2023-05-22T01:00:47.757Z,12.17
2023-05-22T01:03:16.315Z,12.39
2023-05-22T01:05:45.678Z,12.44
2023-05-22T01:08:13.773Z,12.41
2023-05-22T01:10:42.213Z,12.29
2023-05-22T01:13:20.129Z,11.32
2023-05-22T01:15:53.597Z,12.18
2023-05-22T01:18:29.420Z,12.16
2023-05-22T01:21:05.092Z,12.22
2023-05-22T01:24:13.908Z,12.21
2023-05-22T01:27:17.677Z,12.08
2023-05-22T01:29:49.466Z,12.08
2023-05-22T01:32:22.915Z,11.13
2023-05-22T01:34:54.756Z,12.03
2023-05-22T01:37:23.687Z,11.88
2023-05-22T01:39:53.198Z,11.80
2023-05-22T01:42:21.745Z,11.96
2023-05-22T01:44:49.901Z,11.94
2023-05-22T01:47:19.398Z,11.88
2023-05-22T01:49:48.455Z,11.92
2023-05-22T01:52:26.868Z,11.90
2023-05-22T01:55:03.727Z,11.87
2023-05-22T01:57:41.513Z,11.83
2023-05-22T02:00:11.738Z,11.78
2023-05-22T02:02:45.434Z,11.77
2023-05-22T02:05:15.947Z,11.76
2023-05-22T02:07:45.215Z,11.75
2023-05-22T02:10:14.649Z,11.72
2023-05-22T02:12:43.264Z,11.68
2023-05-22T02:15:11.810Z,11.66
2023-05-22T02:17:41.644Z,11.67
2023-05-22T02:20:14.576Z,11.56
2023-05-22T02:22:44.124Z,11.68
2023-05-22T02:25:14.605Z,11.64
2023-05-22T02:27:43.744Z,11.61
2023-05-22T02:30:12.910Z,11.61
2023-05-22T02:32:42.906Z,11.45
2023-05-22T02:35:11.237Z,11.66
2023-05-22T02:37:39.562Z,11.61
2023-05-22T02:40:08.464Z,11.59
2023-05-22T02:42:36.572Z,11.56
2023-05-22T02:45:05.010Z,11.53
2023-05-22T02:47:32.937Z,11.53
2023-05-22T02:50:02.338Z,11.61
2023-05-22T02:52:30.978Z,11.63
2023-05-22T02:54:58.878Z,11.71
2023-05-22T02:57:27.245Z,11.69
2023-05-22T02:59:55.203Z,11.60
2023-05-22T03:02:23.054Z,11.63
2023-05-22T03:04:51.084Z,11.63
2023-05-22T03:07:21.623Z,11.61
2023-05-22T03:09:49.511Z,11.57
2023-05-22T03:12:17.659Z,11.66
2023-05-22T03:14:45.992Z,11.69
2023-05-22T03:17:13.941Z,11.70
2023-05-22T03:19:41.915Z,11.35
2023-05-22T03:22:09.794Z,11.69
2023-05-22T03:24:39.072Z,11.68
2023-05-22T03:27:07.648Z,11.65
2023-05-22T03:29:36.468Z,11.63
2023-05-22T03:32:04.638Z,11.65
2023-05-22T03:34:32.951Z,11.66
2023-05-22T03:37:01.096Z,11.53
2023-05-22T03:39:29.019Z,11.70
2023-05-22T03:41:58.388Z,11.73
2023-05-22T03:44:26.742Z,11.74
2023-05-22T03:46:54.744Z,11.77
2023-05-22T03:49:22.745Z,11.79
2023-05-22T03:51:50.957Z,11.83
2023-05-22T03:54:18.839Z,11.88
2023-05-22T03:56:46.786Z,11.90
2023-05-22T03:59:16.576Z,11.90
2023-05-22T04:01:46.671Z,11.93
2023-05-22T04:04:14.663Z,11.87
2023-05-22T04:06:44.018Z,11.89
2023-05-22T04:09:12.932Z,12.02
2023-05-22T04:11:42.277Z,12.03
2023-05-22T04:14:10.520Z,12.13
2023-05-22T04:16:39.906Z,12.18
2023-05-22T04:19:09.710Z,12.26
2023-05-22T04:21:38.440Z,12.24
2023-05-22T04:24:08.063Z,12.25
2023-05-22T04:26:36.270Z,12.46
2023-05-22T04:29:04.549Z,12.32
2023-05-22T04:31:32.602Z,12.50
2023-05-22T04:34:01.980Z,12.66
2023-05-22T04:36:31.329Z,12.75
2023-05-22T04:39:00.537Z,12.83
2023-05-22T04:41:28.896Z,12.78
2023-05-22T04:43:56.998Z,12.98
2023-05-22T04:46:25.027Z,13.04
2023-05-22T04:48:53.081Z,13.13
2023-05-22T04:51:23.121Z,13.14
2023-05-22T04:53:52.077Z,13.30
2023-05-22T04:56:31.794Z,13.40
2023-05-22T04:59:05.737Z,13.45
2023-05-22T05:01:35.213Z,13.57
2023-05-22T05:04:03.982Z,13.66
2023-05-22T05:06:34.912Z,13.75
2023-05-22T05:09:02.978Z,13.88
2023-05-22T05:11:31.037Z,14.01
2023-05-22T05:13:58.984Z,14.12
2023-05-22T05:16:27.389Z,14.24
2023-05-22T05:18:55.707Z,14.35
2023-05-22T05:21:24.623Z,14.47
2023-05-22T05:23:53.937Z,14.67
2023-05-22T05:26:24.079Z,14.79
2023-05-22T05:28:52.080Z,14.50
2023-05-22T05:31:20.423Z,15.03
2023-05-22T05:33:49.044Z,15.02
2023-05-22T05:36:17.594Z,15.24
2023-05-22T05:38:45.665Z,15.33
2023-05-22T05:41:15.091Z,15.40
2023-05-22T05:43:44.032Z,15.53
2023-05-22T05:46:12.317Z,15.62
2023-05-22T05:48:40.221Z,15.71
2023-05-22T05:51:08.217Z,15.81
2023-05-22T05:53:37.101Z,15.93
2023-05-22T05:56:06.663Z,15.96
2023-05-22T05:58:36.030Z,16.09
2023-05-22T06:01:04.988Z,16.21
2023-05-22T06:03:33.065Z,16.30
2023-05-22T06:06:03.799Z,16.34
2023-05-22T06:08:32.344Z,16.48
2023-05-22T06:11:03.447Z,16.58
2023-05-22T06:13:31.580Z,16.68
2023-05-22T06:16:02.991Z,16.78
2023-05-22T06:18:32.917Z,16.87
2023-05-22T06:21:01.130Z,16.97
2023-05-22T06:23:29.069Z,16.94
2023-05-22T06:25:57.493Z,17.12
2023-05-22T06:28:25.763Z,17.25
2023-05-22T06:30:53.676Z,17.32
2023-05-22T06:33:23.376Z,17.47
2023-05-22T06:35:51.583Z,17.49
2023-05-22T06:38:19.640Z,17.60
2023-05-22T06:40:47.641Z,17.76
2023-05-22T06:43:15.635Z,17.86
2023-05-22T06:45:43.607Z,17.96
2023-05-22T06:48:12.121Z,18.01
2023-05-22T06:50:41.602Z,18.11
2023-05-22T06:53:09.610Z,18.20
2023-05-22T06:55:37.671Z,18.33
2023-05-22T06:58:05.664Z,18.45
2023-05-22T07:00:33.752Z,18.57
2023-05-22T07:03:02.187Z,18.66
2023-05-22T07:05:30.538Z,18.70
2023-05-22T07:07:59.919Z,18.79
2023-05-22T07:10:28.144Z,18.84
2023-05-22T07:12:56.317Z,18.95
2023-05-22T07:15:24.260Z,19.11
2023-05-22T07:17:52.302Z,19.29
2023-05-22T07:20:20.717Z,19.44
2023-05-22T07:22:48.671Z,19.62
2023-05-22T07:25:18.435Z,19.92
2023-05-22T07:27:46.418Z,20.30
2023-05-22T07:30:14.928Z,20.76
2023-05-22T07:32:44.067Z,21.61
2023-05-22T07:35:12.489Z,22.32
2023-05-22T07:37:41.450Z,22.86
2023-05-22T07:40:11.430Z,23.34
2023-05-22T07:42:42.715Z,23.47
2023-05-22T07:45:11.809Z,23.80
2023-05-22T07:47:39.931Z,24.05
2023-05-22T07:50:09.543Z,24.41
2023-05-22T07:52:37.466Z,24.73
2023-05-22T07:55:07.892Z,24.97
2023-05-22T07:57:36.525Z,25.21
2023-05-22T08:00:13.800Z,25.31
2023-05-22T08:02:42.495Z,25.76
2023-05-22T08:05:11.209Z,25.77
2023-05-22T08:07:39.284Z,25.73
2023-05-22T08:10:14.450Z,25.93
2023-05-22T08:12:42.496Z,26.11
2023-05-22T08:15:13.208Z,26.11
2023-05-22T08:17:41.512Z,25.88
2023-05-22T08:20:11.357Z,25.42
2023-05-22T08:22:40.437Z,25.48
2023-05-22T08:25:09.286Z,25.61
2023-05-22T08:27:37.699Z,25.88
2023-05-22T08:30:06.432Z,25.67
2023-05-22T08:32:35.855Z,25.79
2023-05-22T08:35:03.983Z,25.92
2023-05-22T08:37:31.942Z,25.91
2023-05-22T08:39:59.885Z,25.56
2023-05-22T08:42:28.079Z,25.78
2023-05-22T08:44:57.964Z,26.16
2023-05-22T08:47:26.864Z,26.14
2023-05-22T08:49:59.226Z,25.98
2023-05-22T08:52:34.253Z,26.23
2023-05-22T08:55:05.235Z,26.60
2023-05-22T08:57:33.843Z,26.51
2023-05-22T09:00:01.905Z,26.66
2023-05-22T09:02:30.124Z,27.15
2023-05-22T09:05:02.072Z,27.57
2023-05-22T09:07:30.105Z,28.05
2023-05-22T09:09:58.591Z,27.65
2023-05-22T09:12:27.466Z,27.60
2023-05-22T09:14:56.069Z,27.80
2023-05-22T09:17:24.296Z,28.02
2023-05-22T09:19:52.379Z,28.29
2023-05-22T09:22:23.588Z,28.16
2023-05-22T09:24:52.540Z,28.23
2023-05-22T09:27:25.129Z,27.69
2023-05-22T09:29:58.146Z,28.01
2023-05-22T09:32:26.360Z,28.49
2023-05-22T09:34:54.452Z,28.70
2023-05-22T09:37:24.076Z,27.87
2023-05-22T09:39:54.531Z,27.96
2023-05-22T09:42:25.673Z,27.61
2023-05-22T09:44:53.651Z,27.03
2023-05-22T09:47:21.647Z,26.61
2023-05-22T09:49:49.886Z,27.01
2023-05-22T09:52:19.466Z,27.55
2023-05-22T09:54:55.477Z,28.22
2023-05-22T09:57:26.441Z,28.97
2023-05-22T09:59:58.417Z,29.24
2023-05-22T10:02:28.766Z,29.48
2023-05-22T10:04:57.992Z,29.91
2023-05-22T10:07:34.112Z,30.02
2023-05-22T10:10:06.704Z,30.10
2023-05-22T10:12:38.607Z,30.36
2023-05-22T10:15:09.416Z,30.79
2023-05-22T10:17:39.416Z,30.92
2023-05-22T10:20:10.469Z,31.13
2023-05-22T10:22:39.592Z,31.12
2023-05-22T10:25:11.038Z,31.29
2023-05-22T10:27:40.168Z,31.44
2023-05-22T10:30:20.413Z,31.28
2023-05-22T10:32:52.314Z,31.44
2023-05-22T10:35:26.780Z,31.29
2023-05-22T10:37:57.777Z,31.46
2023-05-22T10:40:30.681Z,31.50
2023-05-22T10:43:00.497Z,31.37
2023-05-22T10:45:29.859Z,31.43
2023-05-22T10:48:05.690Z,31.66
2023-05-22T10:50:34.305Z,31.67
2023-05-22T10:53:28.240Z,31.27
2023-05-22T10:56:02.437Z,31.06
2023-05-22T10:58:32.381Z,31.01
2023-05-22T11:01:13.243Z,31.28
2023-05-22T11:04:03.064Z,31.29
2023-05-22T11:06:36.039Z,31.52
2023-05-22T11:09:27.747Z,31.23
2023-05-22T11:12:21.231Z,31.53
2023-05-22T11:14:51.040Z,30.84
2023-05-22T11:17:20.604Z,31.36
2023-05-22T11:19:59.196Z,31.23
2023-05-22T11:22:32.699Z,31.56
2023-05-22T11:25:01.371Z,31.62
2023-05-22T11:27:31.609Z,30.91
2023-05-22T11:30:01.156Z,31.57
2023-05-22T11:32:29.451Z,31.61
2023-05-22T11:34:58.602Z,31.48
2023-05-22T11:37:26.678Z,30.34
2023-05-22T11:39:58.491Z,30.71
2023-05-22T11:42:26.704Z,30.81
2023-05-22T11:45:01.374Z,30.99
2023-05-22T11:47:29.963Z,30.83
2023-05-22T11:49:59.910Z,30.91
2023-05-22T11:52:33.148Z,31.15
2023-05-22T11:55:01.446Z,31.14
2023-05-22T11:57:29.655Z,31.39
2023-05-22T11:59:59.343Z,31.65
2023-05-22T12:02:27.458Z,31.80
2023-05-22T12:04:56.084Z,32.21
2023-05-22T12:07:24.981Z,32.10
2023-05-22T12:09:53.231Z,31.33
2023-05-22T12:12:22.664Z,31.26
2023-05-22T12:14:51.208Z,31.67
2023-05-22T12:17:20.512Z,32.15
2023-05-22T12:19:48.798Z,32.57
2023-05-22T12:22:18.582Z,32.76
2023-05-22T12:24:47.149Z,32.82
2023-05-22T12:27:15.730Z,32.98
2023-05-22T12:29:44.765Z,33.12
2023-05-22T12:32:14.167Z,33.43
2023-05-22T12:34:50.446Z,33.40
2023-05-22T12:37:22.856Z,32.38
2023-05-22T12:39:58.190Z,31.50
2023-05-22T12:42:26.720Z,31.51
2023-05-22T12:44:55.410Z,31.94
2023-05-22T12:47:24.522Z,32.17
2023-05-22T12:49:54.263Z,32.48
2023-05-22T12:52:22.719Z,32.78
2023-05-22T12:54:51.632Z,32.24
2023-05-22T12:57:19.836Z,33.42
2023-05-22T12:59:47.938Z,33.58
2023-05-22T13:02:16.605Z,33.64
2023-05-22T13:04:44.580Z,34.01
2023-05-22T13:07:16.513Z,33.95
2023-05-22T13:09:44.507Z,34.61
2023-05-22T13:12:12.666Z,34.69
2023-05-22T13:14:41.322Z,34.81
2023-05-22T13:17:09.657Z,35.00
2023-05-22T13:19:38.270Z,34.40
2023-05-22T13:22:07.510Z,33.96
2023-05-22T13:24:36.824Z,33.85
2023-05-22T13:27:05.241Z,33.73
2023-05-22T13:29:34.303Z,33.68
2023-05-22T13:32:02.781Z,32.92
2023-05-22T13:34:31.145Z,32.92
2023-05-22T13:36:59.263Z,33.04
2023-05-22T13:39:27.252Z,32.90
2023-05-22T13:41:59.135Z,33.03
2023-05-22T13:44:27.667Z,32.19
2023-05-22T13:46:55.852Z,32.16
2023-05-22T13:49:24.365Z,32.48
2023-05-22T13:51:52.715Z,32.96
2023-05-22T13:54:21.326Z,33.28
2023-05-22T13:56:49.623Z,33.45
2023-05-22T13:59:20.700Z,33.15
2023-05-22T14:01:50.781Z,32.54
2023-05-22T14:04:18.969Z,32.32
2023-05-22T14:06:47.958Z,32.56
2023-05-22T14:09:15.941Z,33.13
2023-05-22T14:11:46.096Z,33.37
2023-05-22T14:14:14.632Z,33.00
2023-05-22T14:16:44.413Z,33.18
2023-05-22T14:19:12.423Z,33.30
2023-05-22T14:21:41.599Z,32.68
2023-05-22T14:24:09.863Z,32.53
2023-05-22T14:26:38.515Z,32.36
2023-05-22T14:29:06.851Z,31.27
2023-05-22T14:31:52.026Z,31.08
2023-05-22T14:34:20.269Z,30.88
2023-05-22T14:36:48.717Z,31.21
2023-05-22T14:39:16.759Z,30.90
2023-05-22T14:41:44.744Z,30.88
2023-05-22T14:44:13.007Z,30.90
2023-05-22T14:46:41.063Z,30.62
2023-05-22T14:49:10.442Z,29.41
2023-05-22T14:51:38.668Z,29.88
2023-05-22T14:54:08.084Z,29.97
2023-05-22T14:56:36.115Z,30.03
2023-05-22T14:59:04.115Z,29.91
2023-05-22T15:01:32.054Z,30.00
2023-05-22T15:04:00.306Z,30.52
2023-05-22T15:06:29.903Z,30.78
2023-05-22T15:08:57.980Z,30.52
2023-05-22T15:11:26.625Z,30.22
2023-05-22T15:13:55.363Z,29.36
2023-05-22T15:16:24.148Z,28.95
2023-05-22T15:18:52.270Z,29.27
2023-05-22T15:21:20.636Z,29.20
2023-05-22T15:23:49.925Z,29.13
2023-05-22T15:26:18.068Z,29.29
2023-05-22T15:28:46.121Z,29.65
2023-05-22T15:31:14.493Z,29.70
2023-05-22T15:33:44.820Z,29.24
2023-05-22T15:36:13.045Z,28.60
2023-05-22T15:38:45.258Z,27.75
2023-05-22T15:41:14.930Z,26.99
2023-05-22T15:43:42.960Z,26.29
2023-05-22T15:46:16.847Z,25.66
2023-05-22T15:48:45.345Z,25.25
2023-05-22T15:51:14.518Z,24.78
2023-05-22T15:53:42.480Z,24.29
2023-05-22T15:56:10.709Z,22.58
2023-05-22T15:58:40.302Z,23.69
2023-05-22T16:01:09.150Z,23.56
2023-05-22T16:03:37.296Z,23.47
2023-05-22T16:06:07.191Z,23.28
2023-05-22T16:08:35.450Z,23.01
2023-05-22T16:11:03.448Z,22.80
2023-05-22T16:13:31.437Z,22.85
2023-05-22T16:16:01.776Z,22.82
2023-05-22T16:18:29.776Z,22.75
2023-05-22T16:20:57.676Z,22.76
2023-05-22T16:23:25.649Z,22.62
2023-05-22T16:25:53.573Z,22.62
2023-05-22T16:28:21.505Z,22.52
2023-05-22T16:30:51.268Z,22.45
2023-05-22T16:33:20.562Z,22.34
2023-05-22T16:35:48.765Z,22.34
2023-05-22T16:38:16.885Z,22.17
2023-05-22T16:40:44.788Z,22.19
2023-05-22T16:43:13.893Z,22.01
2023-05-22T16:45:46.602Z,22.12
2023-05-22T16:48:14.652Z,21.90
2023-05-22T16:50:44.217Z,22.02
2023-05-22T16:53:12.229Z,21.81
2023-05-22T16:55:40.398Z,21.47
2023-05-22T16:58:09.127Z,21.25
2023-05-22T17:00:37.906Z,21.10
2023-05-22T17:03:06.845Z,20.97
2023-05-22T17:05:35.325Z,20.98
2023-05-22T17:08:04.674Z,20.94
2023-05-22T17:10:32.572Z,20.76
2023-05-22T17:13:02.812Z,20.70
2023-05-22T17:15:30.834Z,20.64
2023-05-22T17:18:00.255Z,20.63
2023-05-22T17:20:29.762Z,20.61
2023-05-22T17:22:57.834Z,20.65
2023-05-22T17:25:27.125Z,20.59
2023-05-22T17:27:55.084Z,20.66
2023-05-22T17:30:23.115Z,20.70
2023-05-22T17:32:53.417Z,20.67
2023-05-22T17:35:21.608Z,20.66
2023-05-22T17:37:49.716Z,20.69
2023-05-22T17:40:18.267Z,20.59
2023-05-22T17:42:48.373Z,20.44
2023-05-22T17:45:16.456Z,20.48
2023-05-22T17:47:44.401Z,20.38
2023-05-22T17:50:12.952Z,20.33
2023-05-22T17:52:41.274Z,20.39
2023-05-22T17:55:10.413Z,20.33
2023-05-22T17:57:38.631Z,20.07
2023-05-22T18:00:10.617Z,20.18
2023-05-22T18:02:38.745Z,19.76
2023-05-22T18:05:07.542Z,19.92
2023-05-22T18:07:35.585Z,19.84
2023-05-22T18:10:05.023Z,19.81
2023-05-22T18:12:33.106Z,19.75
2023-05-22T18:15:01.111Z,19.69
2023-05-22T18:17:30.392Z,19.48
2023-05-22T18:19:58.460Z,19.52
2023-05-22T18:22:26.791Z,19.49
2023-05-22T18:24:54.763Z,19.43
2023-05-22T18:27:23.039Z,19.44
2023-05-22T18:29:51.893Z,19.27
2023-05-22T18:32:19.832Z,19.33
2023-05-22T18:34:49.664Z,19.19
2023-05-22T18:37:19.080Z,19.05
2023-05-22T18:39:47.237Z,19.05
2023-05-22T18:42:15.753Z,18.97
2023-05-22T18:44:43.945Z,19.00
2023-05-22T18:47:11.974Z,19.08
2023-05-22T18:49:40.078Z,19.08
2023-05-22T18:52:09.476Z,19.03
2023-05-22T18:54:37.473Z,18.95
2023-05-22T18:57:05.709Z,18.88
2023-05-22T18:59:33.652Z,18.81
2023-05-22T19:02:01.740Z,18.74
2023-05-22T19:04:29.844Z,18.69
2023-05-22T19:06:59.143Z,18.57
2023-05-22T19:09:28.584Z,18.50
2023-05-22T19:11:58.022Z,18.34
2023-05-22T19:14:25.913Z,18.37
2023-05-22T19:16:54.270Z,18.24
2023-05-22T19:19:22.360Z,18.15
2023-05-22T19:21:50.321Z,18.13
2023-05-22T19:24:18.488Z,18.06
2023-05-22T19:26:50.482Z,18.04
2023-05-22T19:29:18.421Z,18.00
2023-05-22T19:31:47.328Z,17.14
2023-05-22T19:34:15.399Z,17.98
2023-05-22T19:36:43.805Z,17.92
2023-05-22T19:39:11.768Z,17.84
2023-05-22T19:41:40.048Z,17.81
2023-05-22T19:44:09.335Z,17.78
2023-05-22T19:46:37.266Z,17.75
2023-05-22T19:49:05.395Z,17.73
2023-05-22T19:51:33.352Z,17.70
2023-05-22T19:54:01.398Z,17.62
2023-05-22T19:56:30.288Z,17.34
2023-05-22T19:58:58.329Z,17.46
2023-05-22T20:01:27.638Z,17.42
2023-05-22T20:03:56.532Z,17.48
2023-05-22T20:06:24.505Z,17.49
2023-05-22T20:08:52.398Z,17.48
2023-05-22T20:11:20.414Z,17.38
2023-05-22T20:13:48.374Z,17.28
2023-05-22T20:16:16.330Z,17.37
2023-05-22T20:18:46.365Z,17.35
2023-05-22T20:21:14.306Z,17.34
2023-05-22T20:23:42.256Z,17.31
2023-05-22T20:26:10.330Z,17.27
2023-05-22T20:28:38.252Z,17.23
2023-05-22T20:31:06.241Z,17.20
2023-05-22T20:33:34.211Z,16.70
2023-05-22T20:36:04.120Z,16.99
2023-05-22T20:38:34.600Z,17.04
2023-05-22T20:41:07.702Z,17.06
2023-05-22T20:43:37.141Z,17.00
2023-05-22T20:46:06.043Z,16.98
2023-05-22T20:48:36.080Z,16.97
2023-05-22T20:51:05.991Z,16.87
2023-05-22T20:53:34.118Z,16.90
2023-05-22T20:56:02.136Z,16.86
2023-05-22T20:58:30.143Z,16.75
2023-05-22T21:00:58.279Z,16.75
2023-05-22T21:03:26.334Z,16.73
2023-05-22T21:05:54.957Z,16.52
2023-05-22T21:08:24.429Z,16.55
2023-05-22T21:10:52.409Z,16.55
2023-05-22T21:13:20.671Z,16.35
2023-05-22T21:15:48.735Z,16.48
2023-05-22T21:18:16.730Z,16.32
2023-05-22T21:20:44.891Z,16.36
2023-05-22T21:23:13.062Z,16.24
2023-05-22T21:25:42.480Z,16.16
2023-05-22T21:28:10.536Z,16.05
2023-05-22T21:30:38.732Z,15.99
2023-05-22T21:33:07.190Z,16.01
2023-05-22T21:35:35.569Z,16.00
2023-05-22T21:38:03.683Z,15.98
2023-05-22T21:40:31.729Z,15.93
2023-05-22T21:43:01.111Z,15.82
2023-05-22T21:45:29.331Z,15.69
2023-05-22T21:47:57.485Z,15.69
2023-05-22T21:50:25.464Z,15.64
2023-05-22T21:52:53.456Z,15.58
2023-05-22T21:55:22.154Z,15.50
2023-05-22T21:57:50.165Z,15.42
2023-05-22T22:00:20.239Z,15.53
2023-05-22T22:02:48.345Z,15.47
2023-05-22T22:05:18.703Z,15.46
2023-05-22T22:07:46.774Z,15.45
2023-05-22T22:10:14.765Z,15.38
2023-05-22T22:12:42.906Z,15.38
2023-05-22T22:15:11.465Z,15.35
2023-05-22T22:17:40.922Z,15.31
2023-05-22T22:20:10.160Z,15.36
2023-05-22T22:22:38.085Z,15.34
2023-05-22T22:25:06.922Z,15.32
2023-05-22T22:27:34.838Z,15.26
2023-05-22T22:30:02.856Z,15.16
2023-05-22T22:32:30.929Z,15.10
2023-05-22T22:35:00.621Z,15.05
2023-05-22T22:37:28.500Z,15.14
2023-05-22T22:39:56.518Z,15.00
2023-05-22T22:42:24.920Z,15.01
2023-05-22T22:44:53.023Z,14.99
2023-05-22T22:47:22.080Z,14.99
2023-05-22T22:49:50.104Z,14.48
2023-05-22T22:52:19.508Z,14.84
2023-05-22T22:54:47.655Z,14.63
2023-05-22T22:57:15.753Z,14.75
2023-05-22T22:59:43.682Z,14.75
2023-05-22T23:02:11.619Z,14.63
2023-05-22T23:04:39.722Z,14.67
2023-05-22T23:07:10.217Z,14.66
2023-05-22T23:09:40.273Z,14.63
2023-05-22T23:12:09.800Z,14.60
2023-05-22T23:14:37.951Z,14.59
2023-05-22T23:17:06.510Z,14.54
2023-05-22T23:19:34.479Z,14.49
2023-05-22T23:22:02.456Z,14.46
2023-05-22T23:24:30.706Z,14.43
2023-05-22T23:26:59.968Z,14.41
2023-05-22T23:29:27.902Z,14.40
2023-05-22T23:31:55.997Z,14.35
2023-05-22T23:34:23.912Z,14.27
2023-05-22T23:36:51.899Z,14.21
2023-05-22T23:39:19.961Z,14.16
2023-05-22T23:41:47.898Z,14.17
2023-05-22T23:44:17.175Z,14.15
2023-05-22T23:46:45.403Z,14.16
2023-05-22T23:49:13.378Z,13.13
2023-05-22T23:51:41.333Z,14.15
2023-05-22T23:54:09.505Z,14.13
2023-05-22T23:56:37.417Z,14.12
2023-05-22T23:59:05.528Z,14.10
